createdAt,value
2023-01-20T00:01:29.515Z,13.93
2023-01-20T00:03:57.795Z,13.60
2023-01-20T00:06:27.704Z,14.47
2023-01-20T00:08:59.028Z,12.57
2023-01-20T00:11:26.304Z,14.60
2023-01-20T00:13:57.454Z,13.90
2023-01-20T00:16:24.894Z,15.50
2023-01-20T00:18:52.261Z,13.90
2023-01-20T00:21:19.649Z,15.27
2023-01-20T00:23:47.442Z,14.27
2023-01-20T00:26:19.057Z,13.80
2023-01-20T00:28:46.959Z,14.07
2023-01-20T00:31:15.644Z,12.10
2023-01-20T00:33:43.803Z,14.73
2023-01-20T00:36:12.065Z,14.23
2023-01-20T00:38:39.353Z,14.97
2023-01-20T00:41:07.010Z,13.97
2023-01-20T00:43:34.397Z,15.37
2023-01-20T00:46:01.646Z,17.63
2023-01-20T00:48:28.914Z,12.50
2023-01-20T00:50:56.145Z,12.73
2023-01-20T00:53:23.405Z,13.70
2023-01-20T00:55:50.644Z,13.73
2023-01-20T00:58:17.957Z,14.30
2023-01-20T01:00:47.443Z,13.20
2023-01-20T01:03:14.958Z,14.57
2023-01-20T01:05:42.210Z,13.50
2023-01-20T01:08:09.638Z,13.63
2023-01-20T01:10:36.820Z,12.93
2023-01-20T01:13:04.692Z,14.17
2023-01-20T01:15:32.003Z,13.80
2023-01-20T01:17:59.722Z,15.30
2023-01-20T01:20:27.302Z,14.03
2023-01-20T01:22:54.582Z,15.07
2023-01-20T01:25:21.983Z,16.77
2023-01-20T01:27:49.172Z,13.27
2023-01-20T01:30:16.423Z,15.53
2023-01-20T01:32:43.636Z,14.30
2023-01-20T01:35:11.047Z,13.10
2023-01-20T01:37:38.321Z,15.33
2023-01-20T01:40:05.780Z,13.80
2023-01-20T01:42:33.447Z,15.17
2023-01-20T01:45:13.118Z,14.83
2023-01-20T01:47:40.634Z,16.63
2023-01-20T01:50:09.838Z,13.67
2023-01-20T01:52:37.050Z,14.93
2023-01-20T01:55:04.475Z,14.67
2023-01-20T01:57:32.316Z,14.57
2023-01-20T01:59:59.495Z,15.87
2023-01-20T02:02:26.852Z,15.10
2023-01-20T02:04:54.121Z,15.17
2023-01-20T02:07:21.711Z,16.33
2023-01-20T02:09:48.915Z,13.40
2023-01-20T02:12:18.086Z,15.23
2023-01-20T02:14:51.298Z,15.33
2023-01-20T02:17:35.732Z,13.83
2023-01-20T02:20:14.984Z,14.80
2023-01-20T02:23:01.085Z,14.33
2023-01-20T02:25:34.466Z,16.07
2023-01-20T02:28:23.753Z,17.50
2023-01-20T02:31:29.582Z,17.73
2023-01-20T02:33:56.984Z,17.03
2023-01-20T02:36:33.689Z,17.00
2023-01-20T02:39:03.707Z,19.67
2023-01-20T02:41:37.489Z,19.07
2023-01-20T02:44:09.822Z,16.87
2023-01-20T02:46:38.573Z,18.83
2023-01-20T02:49:14.466Z,17.93
2023-01-20T02:51:45.926Z,16.83
2023-01-20T02:54:14.486Z,17.47
2023-01-20T02:56:41.883Z,17.10
2023-01-20T02:59:11.360Z,16.70
2023-01-20T03:01:42.633Z,16.23
2023-01-20T03:04:11.784Z,20.87
2023-01-20T03:06:42.861Z,20.10
2023-01-20T03:09:11.895Z,17.40
2023-01-20T03:11:41.768Z,17.50
2023-01-20T03:14:13.707Z,18.37
2023-01-20T03:16:41.749Z,18.27
2023-01-20T03:19:09.185Z,19.27
2023-01-20T03:21:36.738Z,18.33
2023-01-20T03:24:05.544Z,16.03
2023-01-20T03:26:32.869Z,17.97
2023-01-20T03:29:02.243Z,16.70
2023-01-20T03:31:31.452Z,16.77
2023-01-20T03:34:00.761Z,16.83
2023-01-20T03:36:29.106Z,19.33
2023-01-20T03:38:57.075Z,19.27
2023-01-20T03:41:34.823Z,17.83
2023-01-20T03:44:12.489Z,20.80
2023-01-20T03:46:48.570Z,20.07
2023-01-20T03:49:36.361Z,19.73
2023-01-20T03:52:12.759Z,17.40
2023-01-20T03:55:01.430Z,19.97
2023-01-20T03:57:40.462Z,19.53
2023-01-20T04:00:09.331Z,19.70
2023-01-20T04:02:56.850Z,19.43
2023-01-20T04:05:24.642Z,18.80
2023-01-20T04:07:53.714Z,20.37
2023-01-20T04:10:21.008Z,19.53
2023-01-20T04:12:48.201Z,20.97
2023-01-20T04:15:15.966Z,18.97
2023-01-20T04:17:43.365Z,19.93
2023-01-20T04:20:11.365Z,19.23
2023-01-20T04:22:45.084Z,20.73
2023-01-20T04:25:18.454Z,21.47
2023-01-20T04:27:45.717Z,20.77
2023-01-20T04:30:13.970Z,22.00
2023-01-20T04:32:41.258Z,20.63
2023-01-20T04:35:08.700Z,22.17
2023-01-20T04:37:35.963Z,22.60
2023-01-20T04:40:03.178Z,21.97
2023-01-20T04:42:30.719Z,20.37
2023-01-20T04:44:58.040Z,21.30
2023-01-20T04:47:25.456Z,23.13
2023-01-20T04:49:52.686Z,22.47
2023-01-20T04:52:19.869Z,20.90
2023-01-20T04:54:47.103Z,23.77
2023-01-20T04:57:14.399Z,22.20
2023-01-20T04:59:42.543Z,20.60
2023-01-20T05:02:09.779Z,21.13
2023-01-20T05:04:38.128Z,22.47
2023-01-20T05:07:05.338Z,22.83
2023-01-20T05:09:32.537Z,22.77
2023-01-20T05:11:59.907Z,23.10
2023-01-20T05:14:27.462Z,25.80
2023-01-20T05:16:54.700Z,28.20
2023-01-20T05:19:21.930Z,27.67
2023-01-20T05:21:49.114Z,27.13
2023-01-20T05:24:16.328Z,26.90
2023-01-20T05:26:43.551Z,29.70
2023-01-20T05:29:10.785Z,37.27
2023-01-20T05:31:42.980Z,28.97
2023-01-20T05:34:10.732Z,24.93
2023-01-20T05:36:37.980Z,26.73
2023-01-20T05:39:05.320Z,26.47
2023-01-20T05:41:32.511Z,27.17
2023-01-20T05:43:59.872Z,25.13
2023-01-20T05:46:27.108Z,25.13
2023-01-20T05:48:54.475Z,27.27
2023-01-20T05:51:21.793Z,25.17
2023-01-20T05:53:49.017Z,26.17
2023-01-20T05:56:16.363Z,25.97
2023-01-20T05:58:43.828Z,24.53
2023-01-20T06:01:12.272Z,74.77
2023-01-20T06:03:39.854Z,28.27
2023-01-20T06:06:08.346Z,28.10
2023-01-20T06:08:36.027Z,26.40
2023-01-20T06:11:03.443Z,29.27
2023-01-20T06:13:30.759Z,27.57
2023-01-20T06:15:58.099Z,28.60
2023-01-20T06:18:25.621Z,29.53
2023-01-20T06:20:53.165Z,26.37
2023-01-20T06:23:20.442Z,27.23
2023-01-20T06:25:47.708Z,28.20
2023-01-20T06:28:33.857Z,31.50
2023-01-20T06:31:02.289Z,28.03
2023-01-20T06:33:29.957Z,29.53
2023-01-20T06:35:57.461Z,31.00
2023-01-20T06:38:25.795Z,29.73
2023-01-20T06:40:57.712Z,30.60
2023-01-20T06:43:25.312Z,30.23
2023-01-20T06:45:52.643Z,29.97
2023-01-20T06:48:20.074Z,31.77
2023-01-20T06:50:47.294Z,25.40
2023-01-20T06:53:14.535Z,29.87
2023-01-20T06:55:41.763Z,28.67
2023-01-20T06:58:08.989Z,29.50
2023-01-20T07:00:36.303Z,26.20
2023-01-20T07:03:03.552Z,26.80
2023-01-20T07:05:30.816Z,28.63
2023-01-20T07:07:58.621Z,30.27
2023-01-20T07:10:26.019Z,28.30
2023-01-20T07:12:53.296Z,28.27
2023-01-20T07:15:20.534Z,26.80
2023-01-20T07:17:47.784Z,29.80
2023-01-20T07:20:15.153Z,26.37
2023-01-20T07:22:42.427Z,26.13
2023-01-20T07:25:09.911Z,26.57
2023-01-20T07:27:37.269Z,27.97
2023-01-20T07:30:04.686Z,26.60
2023-01-20T07:32:31.971Z,26.70
2023-01-20T07:34:59.212Z,26.73
2023-01-20T07:37:26.409Z,26.97
2023-01-20T07:39:53.656Z,27.77
2023-01-20T07:42:20.952Z,28.13
2023-01-20T07:44:48.700Z,30.80
2023-01-20T07:47:15.931Z,27.43
2023-01-20T07:49:43.135Z,26.60
2023-01-20T07:52:10.384Z,25.53
2023-01-20T07:54:37.642Z,27.07
2023-01-20T07:57:04.902Z,26.03
2023-01-20T07:59:32.192Z,28.70
2023-01-20T08:01:59.616Z,25.23
2023-01-20T08:04:26.942Z,27.60
2023-01-20T08:06:54.243Z,27.57
2023-01-20T08:09:21.466Z,28.07
2023-01-20T08:11:48.704Z,28.70
2023-01-20T08:14:15.998Z,28.23
2023-01-20T08:16:43.413Z,27.23
2023-01-20T08:19:10.960Z,25.80
2023-01-20T08:21:38.216Z,28.13
2023-01-20T08:24:06.608Z,27.43
2023-01-20T08:26:34.549Z,28.83
2023-01-20T08:29:03.251Z,26.63
2023-01-20T08:31:30.676Z,29.93
2023-01-20T08:34:18.615Z,26.83
2023-01-20T08:36:46.266Z,29.33
2023-01-20T08:39:19.006Z,32.23
2023-01-20T08:41:47.445Z,27.33
2023-01-20T08:44:15.665Z,23.60
2023-01-20T08:46:43.478Z,30.37
2023-01-20T08:49:12.682Z,25.73
2023-01-20T08:51:40.127Z,24.37
2023-01-20T08:54:07.772Z,26.27
2023-01-20T08:56:36.677Z,26.17
2023-01-20T08:59:04.048Z,27.73
2023-01-20T09:01:33.751Z,21.80
2023-01-20T09:04:06.517Z,27.00
2023-01-20T09:06:38.192Z,27.73
2023-01-20T09:09:05.501Z,29.37
2023-01-20T09:11:32.898Z,25.00
2023-01-20T09:14:00.281Z,26.00
2023-01-20T09:16:28.545Z,27.23
2023-01-20T09:18:55.830Z,27.57
2023-01-20T09:21:24.571Z,30.70
2023-01-20T09:23:52.230Z,27.33
2023-01-20T09:26:34.221Z,25.20
2023-01-20T09:29:09.243Z,26.53
2023-01-20T09:31:40.829Z,25.23
2023-01-20T09:34:08.496Z,23.27
2023-01-20T09:36:35.704Z,21.37
2023-01-20T09:39:21.481Z,23.47
2023-01-20T09:42:08.317Z,25.53
2023-01-20T09:44:49.071Z,28.00
2023-01-20T09:47:27.307Z,22.57
2023-01-20T09:50:32.942Z,23.00
2023-01-20T09:53:23.348Z,27.10
2023-01-20T09:55:54.683Z,24.17
2023-01-20T09:58:21.963Z,24.20
2023-01-20T10:01:00.371Z,27.77
2023-01-20T10:03:29.336Z,26.20
2023-01-20T10:05:59.135Z,23.27
2023-01-20T10:08:29.065Z,26.10
2023-01-20T10:10:58.134Z,24.90
2023-01-20T10:13:47.412Z,29.67
2023-01-20T10:16:21.197Z,24.17
2023-01-20T10:18:50.048Z,25.60
2023-01-20T10:21:20.548Z,26.00
2023-01-20T10:23:52.251Z,26.47
2023-01-20T10:26:41.307Z,28.67
2023-01-20T10:29:12.040Z,24.87
2023-01-20T10:31:43.654Z,25.83
2023-01-20T10:34:15.823Z,23.47
2023-01-20T10:36:44.956Z,29.37
2023-01-20T10:39:27.158Z,24.37
2023-01-20T10:41:58.468Z,25.17
2023-01-20T10:44:26.389Z,26.37
2023-01-20T10:46:53.766Z,25.27
2023-01-20T10:49:27.178Z,23.73
2023-01-20T10:51:59.849Z,28.27
2023-01-20T10:54:35.739Z,26.43
2023-01-20T10:57:05.137Z,26.23
2023-01-20T10:59:42.839Z,25.80
2023-01-20T11:05:03.786Z,28.33
2023-01-20T11:07:33.368Z,26.73
2023-01-20T11:10:09.799Z,25.90
2023-01-20T11:12:40.611Z,24.87
2023-01-20T11:15:16.947Z,27.30
2023-01-20T11:17:44.226Z,27.57
2023-01-20T11:20:19.477Z,27.90
2023-01-20T11:22:48.307Z,23.87
2023-01-20T11:25:26.207Z,26.13
2023-01-20T11:27:53.779Z,26.90
2023-01-20T11:30:29.186Z,30.60
2023-01-20T11:33:15.476Z,30.20
2023-01-20T11:35:56.992Z,34.07
2023-01-20T11:38:28.957Z,29.43
2023-01-20T11:40:57.450Z,27.07
2023-01-20T11:43:38.409Z,32.90
2023-01-20T11:46:24.512Z,31.87
2023-01-20T11:49:06.505Z,30.13
2023-01-20T11:51:33.759Z,29.23
2023-01-20T11:54:08.291Z,29.57
2023-01-20T11:56:41.753Z,31.30
2023-01-20T11:59:29.272Z,29.40
2023-01-20T12:02:01.844Z,33.13
2023-01-20T12:04:37.252Z,32.50
2023-01-20T12:07:09.749Z,31.20
2023-01-20T12:09:42.222Z,31.00
2023-01-20T12:12:15.468Z,31.93
2023-01-20T12:14:55.427Z,34.97
2023-01-20T12:17:30.060Z,35.17
2023-01-20T12:20:09.716Z,31.33
2023-01-20T12:22:57.654Z,32.73
2023-01-20T12:25:28.206Z,31.67
2023-01-20T12:28:15.775Z,31.77
2023-01-20T12:30:45.562Z,31.90
2023-01-20T12:33:20.817Z,35.80
2023-01-20T12:36:02.649Z,32.40
2023-01-20T12:38:32.422Z,33.00
2023-01-20T12:41:01.707Z,32.57
2023-01-20T12:43:49.203Z,35.90
2023-01-20T12:46:19.486Z,32.50
2023-01-20T12:48:55.513Z,35.77
2023-01-20T12:51:41.275Z,32.60
2023-01-20T12:54:14.632Z,36.60
2023-01-20T12:56:56.095Z,40.67
2023-01-20T12:59:42.170Z,33.13
2023-01-20T13:02:09.447Z,34.60
2023-01-20T13:04:55.341Z,37.03
2023-01-20T13:07:41.095Z,35.30
2023-01-20T13:10:32.974Z,35.80
2023-01-20T13:13:03.267Z,36.37
2023-01-20T13:15:30.806Z,36.40
2023-01-20T13:18:16.194Z,31.43
2023-01-20T13:20:45.531Z,35.63
2023-01-20T13:23:16.798Z,38.57
2023-01-20T13:25:45.604Z,38.27
2023-01-20T13:28:20.044Z,32.77
2023-01-20T13:30:50.788Z,37.17
2023-01-20T13:33:33.778Z,34.70
2023-01-20T13:36:02.428Z,39.33
2023-01-20T13:38:33.074Z,35.77
2023-01-20T13:41:03.470Z,36.60
2023-01-20T13:43:33.797Z,36.77
2023-01-20T13:46:04.657Z,34.70
2023-01-20T13:48:33.361Z,35.20
2023-01-20T13:51:19.205Z,34.13
2023-01-20T13:53:46.960Z,33.83
2023-01-20T13:59:09.077Z,31.40
2023-01-20T14:01:37.345Z,34.17
2023-01-20T14:04:05.805Z,31.90
2023-01-20T14:06:35.766Z,31.63
2023-01-20T14:09:04.279Z,32.20
2023-01-20T14:11:31.555Z,34.73
2023-01-20T14:14:08.621Z,34.43
2023-01-20T14:16:35.939Z,35.90
2023-01-20T14:19:14.098Z,33.37
2023-01-20T14:21:42.294Z,36.37
2023-01-20T14:24:29.318Z,33.10
2023-01-20T14:27:11.896Z,33.13
2023-01-20T14:29:39.974Z,34.40
2023-01-20T14:32:25.885Z,29.17
2023-01-20T14:34:53.843Z,32.70
2023-01-20T14:37:29.367Z,36.57
2023-01-20T14:39:58.707Z,34.70
2023-01-20T14:42:26.825Z,34.43
2023-01-20T14:44:55.309Z,37.43
2023-01-20T14:47:23.514Z,33.90
2023-01-20T14:49:51.556Z,34.87
2023-01-20T14:52:30.346Z,32.87
2023-01-20T14:54:58.262Z,35.73
2023-01-20T14:57:28.696Z,33.60
2023-01-20T15:00:02.053Z,34.73
2023-01-20T15:02:34.358Z,33.23
2023-01-20T15:05:01.924Z,30.47
2023-01-20T15:07:29.200Z,34.67
2023-01-20T15:10:01.720Z,32.33
2023-01-20T15:12:37.924Z,32.77
2023-01-20T15:15:08.029Z,32.13
2023-01-20T15:17:35.341Z,32.37
2023-01-20T15:20:02.691Z,32.70
2023-01-20T15:22:30.389Z,34.93
2023-01-20T15:25:04.055Z,31.80
2023-01-20T15:27:34.714Z,34.40
2023-01-20T15:30:13.991Z,36.57
2023-01-20T15:32:41.512Z,32.23
2023-01-20T15:35:12.808Z,36.10
2023-01-20T15:37:40.744Z,37.03
2023-01-20T15:40:13.962Z,38.10
2023-01-20T15:42:42.556Z,38.53
2023-01-20T15:45:13.620Z,38.77
2023-01-20T15:47:40.938Z,38.63
2023-01-20T15:50:13.871Z,33.90
2023-01-20T15:52:41.259Z,36.80
2023-01-20T15:55:09.470Z,37.00
2023-01-20T15:57:36.834Z,38.27
2023-01-20T16:00:05.585Z,36.73
2023-01-20T16:02:52.950Z,41.23
2023-01-20T16:05:20.409Z,36.23
2023-01-20T16:07:49.509Z,36.23
2023-01-20T16:10:18.261Z,35.60
2023-01-20T16:12:46.182Z,41.83
2023-01-20T16:15:15.061Z,37.70
2023-01-20T16:17:42.698Z,39.57
2023-01-20T16:20:17.511Z,41.40
2023-01-20T16:22:45.279Z,35.83
2023-01-20T16:25:12.599Z,34.97
2023-01-20T16:27:39.905Z,35.33
2023-01-20T16:30:07.527Z,38.07
2023-01-20T16:32:34.838Z,38.70
2023-01-20T16:35:02.255Z,40.03
2023-01-20T16:37:29.562Z,38.40
2023-01-20T16:39:56.863Z,34.63
2023-01-20T16:42:24.369Z,36.30
2023-01-20T16:44:53.357Z,36.80
2023-01-20T16:47:20.632Z,34.13
2023-01-20T16:49:47.953Z,37.47
2023-01-20T16:52:15.203Z,33.83
2023-01-20T16:54:42.543Z,38.60
2023-01-20T16:57:10.415Z,35.33
2023-01-20T16:59:37.685Z,38.63
2023-01-20T17:02:04.935Z,35.97
2023-01-20T17:04:32.338Z,33.00
2023-01-20T17:07:00.208Z,27.40
2023-01-20T17:09:27.596Z,26.07
2023-01-20T17:11:54.987Z,26.70
2023-01-20T17:14:22.271Z,26.30
2023-01-20T17:16:49.780Z,26.77
2023-01-20T17:19:17.838Z,27.07
2023-01-20T17:21:45.254Z,26.37
2023-01-20T17:24:12.881Z,29.47
2023-01-20T17:26:40.182Z,30.00
2023-01-20T17:29:08.558Z,29.53
2023-01-20T17:31:36.936Z,27.53
2023-01-20T17:34:05.238Z,28.97
2023-01-20T17:36:35.864Z,28.00
2023-01-20T17:39:03.431Z,25.60
2023-01-20T17:41:30.789Z,28.00
2023-01-20T17:43:58.041Z,26.17
2023-01-20T17:46:27.817Z,25.77
2023-01-20T17:48:56.912Z,29.17
2023-01-20T17:51:25.332Z,31.37
2023-01-20T17:53:53.201Z,25.23
2023-01-20T17:56:21.204Z,24.77
2023-01-20T17:58:49.484Z,28.83
2023-01-20T18:01:27.286Z,24.37
2023-01-20T18:03:55.648Z,24.33
2023-01-20T18:06:23.569Z,24.13
2023-01-20T18:08:53.859Z,24.97
2023-01-20T18:11:21.690Z,26.50
2023-01-20T18:13:55.133Z,29.63
2023-01-20T18:16:23.233Z,30.17
2023-01-20T18:18:50.917Z,26.73
2023-01-20T18:21:19.635Z,28.40
2023-01-20T18:23:47.970Z,34.43
2023-01-20T18:26:16.297Z,29.87
2023-01-20T18:28:44.043Z,31.97
2023-01-20T18:31:15.849Z,27.67
2023-01-20T18:33:44.573Z,28.73
2023-01-20T18:36:31.876Z,41.67
2023-01-20T18:39:19.438Z,38.57
2023-01-20T18:41:47.543Z,35.50
2023-01-20T18:44:15.000Z,32.70
2023-01-20T18:46:42.489Z,32.23
2023-01-20T18:49:12.813Z,33.73
2023-01-20T18:51:41.597Z,32.43
2023-01-20T18:54:11.299Z,33.47
2023-01-20T18:56:38.698Z,32.90
2023-01-20T18:59:06.579Z,29.10
2023-01-20T19:01:34.991Z,33.93
2023-01-20T19:04:03.078Z,33.63
2023-01-20T19:06:31.793Z,33.73
2023-01-20T19:08:59.534Z,32.57
2023-01-20T19:11:29.342Z,32.97
2023-01-20T19:13:56.982Z,31.10
2023-01-20T19:16:25.668Z,33.77
2023-01-20T19:18:54.605Z,37.30
2023-01-20T19:21:22.921Z,32.30
2023-01-20T19:23:50.682Z,29.60
2023-01-20T19:26:18.744Z,28.03
2023-01-20T19:28:46.930Z,31.63
2023-01-20T19:31:16.605Z,28.93
2023-01-20T19:33:44.869Z,30.87
2023-01-20T19:36:13.828Z,30.27
2023-01-20T19:39:00.904Z,31.93
2023-01-20T19:41:29.543Z,31.03
2023-01-20T19:43:57.663Z,28.40
2023-01-20T19:46:29.322Z,28.70
2023-01-20T19:49:00.238Z,30.30
2023-01-20T19:51:27.829Z,25.97
2023-01-20T19:53:58.154Z,29.63
2023-01-20T19:56:26.580Z,26.20
2023-01-20T19:58:54.661Z,24.57
2023-01-20T20:01:23.580Z,23.97
2023-01-20T20:03:51.443Z,23.43
2023-01-20T20:06:32.631Z,24.57
2023-01-20T20:09:01.104Z,26.47
2023-01-20T20:11:29.061Z,32.13
2023-01-20T20:14:00.722Z,23.87
2023-01-20T20:16:29.220Z,23.80
2023-01-20T20:18:57.149Z,19.60
2023-01-20T20:21:24.788Z,20.13
2023-01-20T20:23:53.237Z,23.80
2023-01-20T20:26:21.475Z,21.80
2023-01-20T20:28:48.839Z,20.03
2023-01-20T20:31:16.387Z,23.90
2023-01-20T20:33:46.174Z,22.57
2023-01-20T20:36:13.945Z,25.13
2023-01-20T20:38:41.688Z,29.13
2023-01-20T20:41:09.585Z,26.47
2023-01-20T20:43:38.091Z,27.93
2023-01-20T20:46:06.674Z,29.77
2023-01-20T20:48:33.998Z,29.10
2023-01-20T20:51:11.961Z,26.83
2023-01-20T20:53:39.590Z,25.80
2023-01-20T20:56:08.780Z,29.33
2023-01-20T20:58:36.584Z,44.23
2023-01-20T21:01:04.452Z,29.83
2023-01-20T21:03:34.281Z,33.20
2023-01-20T21:06:02.151Z,33.10
2023-01-20T21:08:29.506Z,28.73
2023-01-20T21:11:03.581Z,30.07
2023-01-20T21:13:31.398Z,28.80
2023-01-20T21:16:00.528Z,26.53
2023-01-20T21:18:28.470Z,27.77
2023-01-20T21:20:56.725Z,32.00
2023-01-20T21:23:24.448Z,26.70
2023-01-20T21:25:51.943Z,57.23
2023-01-20T21:28:19.367Z,33.67
2023-01-20T21:30:46.813Z,29.10
2023-01-20T21:33:17.622Z,27.47
2023-01-20T21:35:46.056Z,24.83
2023-01-20T21:38:13.729Z,29.90
2023-01-20T21:40:41.797Z,31.53
2023-01-20T21:43:27.898Z,26.00
2023-01-20T21:45:56.341Z,29.37
2023-01-20T21:48:42.754Z,28.53
2023-01-20T21:51:29.663Z,29.97
2023-01-20T21:53:56.931Z,28.93
2023-01-20T21:56:24.184Z,29.13
2023-01-20T21:58:51.604Z,27.13
2023-01-20T22:01:18.912Z,28.47
2023-01-20T22:03:46.177Z,24.67
2023-01-20T22:06:13.540Z,28.13
2023-01-20T22:08:40.769Z,29.10
2023-01-20T22:11:08.077Z,25.63
2023-01-20T22:13:35.439Z,27.80
2023-01-20T22:16:03.639Z,27.13
2023-01-20T22:18:31.269Z,27.47
2023-01-20T22:21:05.544Z,27.07
2023-01-20T22:23:33.540Z,26.50
2023-01-20T22:26:00.920Z,30.20
2023-01-20T22:28:30.208Z,28.50
2023-01-20T22:30:57.563Z,29.07
2023-01-20T22:33:25.159Z,28.50
2023-01-20T22:35:54.763Z,35.07
2023-01-20T22:38:22.086Z,32.77
2023-01-20T22:40:49.337Z,33.07
2023-01-20T22:43:16.735Z,27.23
2023-01-20T22:45:44.087Z,28.57
2023-01-20T22:48:11.574Z,25.47
2023-01-20T22:50:39.000Z,27.40
2023-01-20T22:53:06.499Z,26.30
2023-01-20T22:55:33.879Z,29.23
2023-01-20T22:58:01.587Z,26.37
2023-01-20T23:00:29.380Z,23.80
2023-01-20T23:02:56.867Z,27.43
2023-01-20T23:05:24.343Z,25.20
2023-01-20T23:07:51.625Z,22.50
2023-01-20T23:10:37.758Z,21.67
2023-01-20T23:13:05.118Z,21.83
2023-01-20T23:15:33.221Z,22.43
2023-01-20T23:18:00.452Z,22.93
2023-01-20T23:20:27.792Z,22.33
2023-01-20T23:22:55.386Z,22.47
2023-01-20T23:25:23.004Z,23.83
2023-01-20T23:27:50.278Z,22.93
2023-01-20T23:30:18.271Z,22.23
2023-01-20T23:32:45.768Z,20.97
2023-01-20T23:35:13.098Z,20.53
2023-01-20T23:37:40.353Z,20.83
2023-01-20T23:40:07.783Z,22.33
2023-01-20T23:42:35.082Z,22.37
2023-01-20T23:45:02.387Z,20.67
2023-01-20T23:47:29.797Z,20.87
2023-01-20T23:49:57.192Z,18.43
2023-01-20T23:52:25.965Z,18.90
2023-01-20T23:54:53.706Z,18.70
2023-01-20T23:57:21.265Z,20.37
2023-01-20T23:59:48.608Z,20.23
